createdAt,value
2018-05-23T00:00:07.230Z,17.10
2018-05-23T00:01:07.335Z,17.23
2018-05-23T00:02:07.555Z,17.22
2018-05-23T00:03:07.565Z,17.22
2018-05-23T00:04:07.688Z,17.25
2018-05-23T00:05:07.823Z,17.23
2018-05-23T00:06:07.927Z,17.22
2018-05-23T00:07:08.016Z,17.28
2018-05-23T00:08:08.112Z,17.29
2018-05-23T00:09:08.304Z,17.17
2018-05-23T00:10:08.288Z,17.22
2018-05-23T00:11:08.409Z,17.29
2018-05-23T00:12:08.492Z,17.23
2018-05-23T00:13:08.596Z,17.29
2018-05-23T00:14:08.689Z,17.28
2018-05-23T00:15:08.793Z,17.28
2018-05-23T00:16:08.888Z,17.25
2018-05-23T00:17:09.002Z,17.17
2018-05-23T00:18:09.100Z,17.22
2018-05-23T00:19:09.239Z,17.11
2018-05-23T00:20:09.352Z,17.15
2018-05-23T00:21:09.456Z,17.20
2018-05-23T00:22:09.610Z,17.10
2018-05-23T00:23:09.746Z,17.14
2018-05-23T00:24:09.833Z,17.15
2018-05-23T00:25:09.921Z,17.22
2018-05-23T00:26:10.036Z,17.13
2018-05-23T00:27:10.141Z,17.15
2018-05-23T00:28:10.224Z,17.15
2018-05-23T00:29:10.393Z,17.11
2018-05-23T00:30:10.477Z,17.17
2018-05-23T00:31:10.641Z,17.23
2018-05-23T00:32:10.734Z,17.10
2018-05-23T00:33:10.823Z,17.14
2018-05-23T00:34:10.940Z,17.13
2018-05-23T00:35:11.055Z,17.23
2018-05-23T00:36:11.147Z,17.10
2018-05-23T00:37:11.244Z,17.14
2018-05-23T00:38:11.342Z,17.20
2018-05-23T00:39:11.439Z,17.25
2018-05-23T00:40:11.533Z,17.15
2018-05-23T00:41:11.658Z,17.15
2018-05-23T00:42:11.773Z,17.17
2018-05-23T00:43:11.871Z,17.15
2018-05-23T00:44:11.966Z,17.13
2018-05-23T00:45:12.066Z,17.14
2018-05-23T00:46:12.171Z,17.11
2018-05-23T00:47:12.283Z,17.13
2018-05-23T00:48:12.391Z,17.14
2018-05-23T00:49:12.489Z,17.10
2018-05-23T00:50:12.684Z,17.14
2018-05-23T00:51:12.691Z,17.11
2018-05-23T00:52:12.784Z,16.96
2018-05-23T00:53:12.892Z,17.06
2018-05-23T00:54:12.991Z,17.06
2018-05-23T00:55:13.088Z,17.08
2018-05-23T00:56:13.182Z,17.17
2018-05-23T00:57:13.286Z,17.14
2018-05-23T00:58:13.390Z,17.15
2018-05-23T00:59:13.490Z,17.07
2018-05-23T01:00:13.589Z,16.99
2018-05-23T01:01:13.695Z,17.07
2018-05-23T01:02:13.792Z,17.20
2018-05-23T01:03:13.904Z,17.04
2018-05-23T01:04:14.006Z,17.11
2018-05-23T01:05:14.103Z,17.11
2018-05-23T01:06:14.201Z,17.06
2018-05-23T01:07:14.324Z,17.04
2018-05-23T01:08:14.420Z,17.11
2018-05-23T01:09:14.504Z,17.15
2018-05-23T01:10:14.625Z,17.07
2018-05-23T01:11:14.717Z,17.13
2018-05-23T01:12:14.815Z,17.00
2018-05-23T01:13:14.905Z,17.13
2018-05-23T01:14:15.011Z,17.04
2018-05-23T01:15:15.126Z,16.99
2018-05-23T01:16:15.227Z,17.04
2018-05-23T01:17:15.325Z,17.07
2018-05-23T01:18:15.435Z,17.15
2018-05-23T01:19:15.535Z,17.20
2018-05-23T01:20:15.632Z,17.04
2018-05-23T01:21:15.732Z,17.04
2018-05-23T01:22:15.830Z,17.10
2018-05-23T01:23:15.931Z,17.06
2018-05-23T01:24:16.031Z,17.11
2018-05-23T01:25:16.133Z,17.04
2018-05-23T01:26:16.237Z,17.10
2018-05-23T01:27:16.332Z,17.15
2018-05-23T01:28:16.433Z,17.13
2018-05-23T01:29:16.531Z,17.10
2018-05-23T01:30:16.638Z,17.04
2018-05-23T01:31:16.738Z,17.04
2018-05-23T01:32:16.839Z,17.03
2018-05-23T01:33:16.938Z,16.99
2018-05-23T01:34:17.036Z,16.95
2018-05-23T01:35:17.137Z,17.06
2018-05-23T01:36:17.239Z,16.99
2018-05-23T01:37:17.346Z,17.04
2018-05-23T01:38:17.448Z,16.93
2018-05-23T01:39:17.547Z,16.98
2018-05-23T01:40:17.644Z,16.89
2018-05-23T01:41:17.746Z,16.90
2018-05-23T01:42:17.845Z,16.88
2018-05-23T01:43:17.938Z,16.92
2018-05-23T01:44:18.056Z,16.85
2018-05-23T01:45:18.152Z,16.86
2018-05-23T01:46:18.252Z,16.89
2018-05-23T01:47:18.352Z,16.88
2018-05-23T01:48:18.455Z,16.88
2018-05-23T01:49:18.559Z,16.85
2018-05-23T01:50:18.662Z,16.83
2018-05-23T01:51:18.764Z,16.81
2018-05-23T01:52:18.863Z,16.81
2018-05-23T01:53:18.970Z,16.85
2018-05-23T01:54:19.063Z,16.81
2018-05-23T01:55:19.163Z,16.83
2018-05-23T01:56:19.264Z,16.85
2018-05-23T01:57:19.360Z,16.71
2018-05-23T01:58:19.476Z,16.65
2018-05-23T01:59:19.571Z,16.67
2018-05-23T02:00:19.673Z,16.53
2018-05-23T02:01:19.771Z,16.55
2018-05-23T02:02:19.871Z,16.58
2018-05-23T02:03:19.969Z,16.58
2018-05-23T02:04:20.077Z,16.71
2018-05-23T02:05:20.184Z,16.71
2018-05-23T02:06:20.285Z,16.74
2018-05-23T02:07:20.385Z,16.80
2018-05-23T02:08:20.485Z,16.70
2018-05-23T02:09:20.583Z,16.73
2018-05-23T02:10:20.681Z,16.73
2018-05-23T02:11:20.783Z,16.77
2018-05-23T02:12:20.898Z,16.75
2018-05-23T02:13:20.999Z,16.77
2018-05-23T02:14:21.096Z,16.73
2018-05-23T02:15:21.195Z,16.80
2018-05-23T02:16:21.294Z,16.70
2018-05-23T02:17:21.393Z,16.68
2018-05-23T02:18:21.491Z,16.71
2018-05-23T02:19:21.608Z,16.68
2018-05-23T02:20:21.706Z,16.75
2018-05-23T02:21:21.806Z,16.75
2018-05-23T02:22:21.904Z,16.68
2018-05-23T02:23:22.005Z,16.62
2018-05-23T02:24:22.104Z,16.63
2018-05-23T02:25:22.202Z,16.48
2018-05-23T02:26:22.321Z,16.52
2018-05-23T02:27:22.423Z,16.58
2018-05-23T02:28:22.532Z,16.60
2018-05-23T02:29:22.616Z,16.65
2018-05-23T02:30:22.715Z,16.67
2018-05-23T02:31:22.814Z,16.71
2018-05-23T02:32:22.915Z,16.68
2018-05-23T02:33:23.033Z,16.77
2018-05-23T02:34:23.138Z,16.77
2018-05-23T02:35:23.236Z,16.70
2018-05-23T02:36:23.331Z,16.77
2018-05-23T02:37:23.431Z,16.67
2018-05-23T02:38:23.528Z,16.73
2018-05-23T02:39:23.626Z,16.67
2018-05-23T02:40:23.745Z,16.55
2018-05-23T02:41:23.843Z,16.50
2018-05-23T02:42:23.942Z,16.31
2018-05-23T02:43:24.036Z,16.27
2018-05-23T02:44:24.134Z,16.26
2018-05-23T02:45:24.233Z,16.16
2018-05-23T02:46:24.331Z,16.31
2018-05-23T02:47:24.430Z,16.26
2018-05-23T02:48:24.525Z,16.25
2018-05-23T02:49:24.633Z,16.26
2018-05-23T02:50:24.731Z,16.26
2018-05-23T02:51:24.832Z,16.26
2018-05-23T02:52:24.938Z,16.33
2018-05-23T02:53:25.036Z,16.34
2018-05-23T02:54:25.133Z,16.23
2018-05-23T02:55:25.233Z,16.15
2018-05-23T02:56:25.334Z,16.18
2018-05-23T02:57:25.431Z,16.23
2018-05-23T02:58:25.531Z,16.20
2018-05-23T02:59:25.635Z,16.20
2018-05-23T03:00:25.731Z,16.22
2018-05-23T03:01:25.820Z,16.25
2018-05-23T03:02:25.922Z,16.31
2018-05-23T03:03:26.023Z,16.25
2018-05-23T03:04:26.127Z,16.27
2018-05-23T03:05:26.222Z,16.31
2018-05-23T03:06:26.320Z,16.26
2018-05-23T03:07:26.421Z,16.27
2018-05-23T03:08:26.516Z,16.16
2018-05-23T03:09:26.616Z,16.30
2018-05-23T03:10:26.712Z,16.33
2018-05-23T03:11:26.811Z,16.26
2018-05-23T03:12:26.911Z,16.41
2018-05-23T03:13:27.008Z,16.38
2018-05-23T03:14:27.111Z,16.44
2018-05-23T03:15:27.211Z,16.53
2018-05-23T03:16:27.312Z,16.48
2018-05-23T03:17:27.406Z,16.40
2018-05-23T03:18:27.504Z,16.30
2018-05-23T03:19:27.604Z,16.15
2018-05-23T03:20:27.707Z,16.06
2018-05-23T03:21:27.821Z,16.01
2018-05-23T03:22:27.922Z,16.04
2018-05-23T03:23:28.022Z,15.96
2018-05-23T03:24:28.127Z,15.89
2018-05-23T03:25:28.224Z,16.01
2018-05-23T03:26:28.321Z,15.96
2018-05-23T03:27:28.409Z,15.93
2018-05-23T03:28:28.539Z,15.89
2018-05-23T03:29:28.637Z,15.79
2018-05-23T03:30:28.738Z,15.93
2018-05-23T03:31:28.836Z,15.88
2018-05-23T03:32:28.955Z,15.76
2018-05-23T03:33:29.047Z,15.78
2018-05-23T03:34:29.137Z,15.84
2018-05-23T03:35:29.244Z,15.84
2018-05-23T03:36:29.337Z,15.99
2018-05-23T03:37:29.437Z,15.92
2018-05-23T03:38:29.531Z,15.94
2018-05-23T03:39:29.623Z,15.89
2018-05-23T03:40:29.724Z,15.88
2018-05-23T03:41:29.819Z,15.75
2018-05-23T03:42:29.953Z,15.59
2018-05-23T03:43:30.051Z,15.68
2018-05-23T03:44:30.152Z,15.64
2018-05-23T03:45:30.252Z,15.60
2018-05-23T03:46:30.337Z,15.57
2018-05-23T03:47:30.435Z,15.52
2018-05-23T03:48:30.548Z,15.66
2018-05-23T03:49:30.652Z,15.66
2018-05-23T03:50:30.750Z,15.68
2018-05-23T03:51:30.849Z,15.61
2018-05-23T03:52:30.945Z,15.67
2018-05-23T03:53:31.041Z,15.70
2018-05-23T03:54:31.134Z,15.67
2018-05-23T03:55:31.234Z,15.70
2018-05-23T03:56:31.315Z,15.70
2018-05-23T03:57:31.415Z,15.70
2018-05-23T03:58:31.537Z,15.60
2018-05-23T03:59:31.636Z,15.67
2018-05-23T04:00:31.735Z,15.48
2018-05-23T04:01:31.828Z,15.52
2018-05-23T04:02:31.930Z,15.52
2018-05-23T04:03:32.027Z,15.64
2018-05-23T04:04:32.129Z,15.70
2018-05-23T04:05:32.230Z,15.79
2018-05-23T04:06:32.436Z,15.92
2018-05-23T04:07:32.372Z,15.94
2018-05-23T04:08:32.473Z,16.06
2018-05-23T04:09:32.594Z,16.04
2018-05-23T04:10:32.758Z,16.14
2018-05-23T04:11:32.792Z,16.20
2018-05-23T04:12:32.893Z,16.33
2018-05-23T04:13:32.991Z,16.27
2018-05-23T04:14:33.091Z,16.37
2018-05-23T04:15:33.196Z,16.48
2018-05-23T04:16:33.303Z,16.49
2018-05-23T04:17:33.400Z,16.55
2018-05-23T04:18:33.502Z,16.52
2018-05-23T04:19:33.604Z,16.60
2018-05-23T04:20:33.701Z,16.56
2018-05-23T04:21:33.800Z,16.52
2018-05-23T04:22:33.900Z,16.50
2018-05-23T04:23:34.013Z,16.30
2018-05-23T04:24:34.111Z,16.35
2018-05-23T04:25:34.209Z,16.42
2018-05-23T04:26:34.310Z,16.38
2018-05-23T04:27:34.413Z,16.48
2018-05-23T04:28:34.509Z,16.56
2018-05-23T04:29:34.607Z,16.60
2018-05-23T04:30:34.726Z,16.52
2018-05-23T04:31:34.826Z,16.48
2018-05-23T04:32:34.924Z,16.40
2018-05-23T04:33:35.024Z,16.27
2018-05-23T04:34:35.124Z,16.34
2018-05-23T04:35:35.224Z,16.38
2018-05-23T04:36:35.322Z,16.40
2018-05-23T04:37:35.440Z,16.42
2018-05-23T04:38:35.538Z,16.44
2018-05-23T04:39:35.638Z,16.49
2018-05-23T04:40:35.739Z,16.65
2018-05-23T04:41:35.840Z,16.68
2018-05-23T04:42:35.966Z,16.70
2018-05-23T04:43:36.063Z,16.83
2018-05-23T04:44:36.221Z,16.95
2018-05-23T04:45:36.307Z,16.81
2018-05-23T04:46:36.429Z,16.83
2018-05-23T04:47:36.537Z,16.83
2018-05-23T04:48:36.663Z,16.86
2018-05-23T04:49:36.733Z,16.89
2018-05-23T04:50:36.849Z,16.99
2018-05-23T04:51:36.944Z,17.17
2018-05-23T04:52:37.069Z,17.11
2018-05-23T04:53:37.194Z,17.08
2018-05-23T04:54:37.293Z,17.15
2018-05-23T04:55:37.415Z,17.33
2018-05-23T04:56:37.573Z,17.38
2018-05-23T04:57:37.681Z,17.32
2018-05-23T04:58:37.809Z,17.38
2018-05-23T04:59:37.911Z,17.50
2018-05-23T05:00:37.999Z,17.48
2018-05-23T05:01:38.091Z,17.51
2018-05-23T05:02:38.240Z,17.63
2018-05-23T05:03:38.337Z,17.57
2018-05-23T05:04:38.427Z,17.59
2018-05-23T05:05:38.535Z,17.69
2018-05-23T05:06:38.627Z,17.71
2018-05-23T05:07:38.728Z,17.73
2018-05-23T05:08:38.835Z,17.79
2018-05-23T05:09:38.968Z,17.81
2018-05-23T05:10:39.122Z,17.70
2018-05-23T05:11:39.208Z,17.78
2018-05-23T05:12:39.297Z,17.73
2018-05-23T05:13:39.475Z,17.79
2018-05-23T05:14:39.486Z,17.89
2018-05-23T05:15:39.641Z,17.88
2018-05-23T05:16:39.727Z,17.92
2018-05-23T05:17:39.831Z,17.85
2018-05-23T05:18:39.942Z,17.84
2018-05-23T05:19:40.044Z,17.85
2018-05-23T05:20:40.158Z,17.89
2018-05-23T05:21:40.248Z,17.88
2018-05-23T05:22:40.377Z,17.92
2018-05-23T05:23:40.620Z,17.92
2018-05-23T05:24:40.617Z,17.94
2018-05-23T05:25:40.733Z,17.97
2018-05-23T05:26:40.835Z,18.04
2018-05-23T05:27:40.920Z,18.02
2018-05-23T05:28:41.041Z,18.03
2018-05-23T05:29:41.149Z,18.03
2018-05-23T05:30:41.280Z,18.00
2018-05-23T05:31:41.398Z,18.09
2018-05-23T05:32:41.519Z,18.03
2018-05-23T05:33:41.624Z,18.03
2018-05-23T05:34:41.722Z,18.00
2018-05-23T05:35:41.828Z,18.12
2018-05-23T05:36:41.936Z,18.12
2018-05-23T05:37:42.031Z,18.17
2018-05-23T05:38:42.140Z,18.13
2018-05-23T05:39:42.235Z,18.15
2018-05-23T05:40:42.329Z,18.24
2018-05-23T05:41:42.434Z,18.19
2018-05-23T05:42:42.521Z,18.27
2018-05-23T05:43:42.623Z,18.21
2018-05-23T05:44:42.722Z,18.29
2018-05-23T05:45:42.848Z,18.22
2018-05-23T05:46:42.948Z,18.22
2018-05-23T05:47:43.053Z,18.31
2018-05-23T05:48:43.152Z,18.36
2018-05-23T05:49:43.258Z,18.39
2018-05-23T05:50:43.360Z,18.36
2018-05-23T05:51:43.456Z,18.34
2018-05-23T05:52:43.561Z,18.44
2018-05-23T05:53:43.754Z,18.39
2018-05-23T05:54:43.757Z,18.40
2018-05-23T05:55:43.871Z,18.42
2018-05-23T05:56:43.964Z,18.40
2018-05-23T05:57:44.051Z,18.37
2018-05-23T05:58:44.162Z,18.42
2018-05-23T05:59:44.269Z,18.44
2018-05-23T06:00:44.382Z,18.46
2018-05-23T06:01:44.517Z,18.44
2018-05-23T06:02:44.642Z,18.58
2018-05-23T06:03:44.740Z,18.67
2018-05-23T06:04:44.844Z,18.58
2018-05-23T06:05:44.950Z,18.74
2018-05-23T06:06:45.052Z,18.73
2018-05-23T06:07:45.143Z,18.83
2018-05-23T06:08:45.248Z,18.79
2018-05-23T06:09:45.349Z,18.90
2018-05-23T06:10:45.449Z,18.91
2018-05-23T06:11:45.561Z,18.94
2018-05-23T06:12:45.664Z,19.02
2018-05-23T06:13:45.769Z,19.10
2018-05-23T06:14:45.887Z,19.17
2018-05-23T06:15:45.990Z,19.17
2018-05-23T06:16:46.089Z,19.25
2018-05-23T06:17:46.195Z,19.35
2018-05-23T06:18:46.297Z,19.17
2018-05-23T06:19:46.395Z,19.33
2018-05-23T06:20:46.495Z,19.38
2018-05-23T06:21:46.598Z,19.42
2018-05-23T06:22:46.698Z,19.43
2018-05-23T06:23:46.801Z,19.54
2018-05-23T06:24:46.901Z,19.54
2018-05-23T06:25:47.025Z,19.60
2018-05-23T06:26:47.127Z,19.63
2018-05-23T06:27:47.222Z,19.76
2018-05-23T06:28:47.322Z,19.73
2018-05-23T06:29:47.425Z,19.87
2018-05-23T06:30:47.527Z,19.84
2018-05-23T06:31:47.628Z,19.86
2018-05-23T06:32:47.730Z,19.93
2018-05-23T06:33:47.834Z,19.86
2018-05-23T06:34:47.930Z,19.69
2018-05-23T06:35:48.029Z,19.63
2018-05-23T06:36:48.134Z,19.60
2018-05-23T06:37:48.271Z,19.75
2018-05-23T06:38:48.337Z,19.90
2018-05-23T06:39:48.438Z,19.68
2018-05-23T06:40:48.543Z,19.66
2018-05-23T06:41:48.652Z,19.72
2018-05-23T06:42:48.768Z,19.68
2018-05-23T06:43:48.861Z,19.63
2018-05-23T06:44:48.967Z,19.76
2018-05-23T06:45:49.070Z,19.88
2018-05-23T06:46:49.172Z,19.95
2018-05-23T06:47:49.276Z,20.03
2018-05-23T06:48:49.421Z,20.21
2018-05-23T06:49:49.523Z,20.33
2018-05-23T06:50:49.626Z,20.50
2018-05-23T06:51:49.740Z,20.56
2018-05-23T06:52:49.845Z,20.72
2018-05-23T06:53:49.948Z,20.51
2018-05-23T06:54:50.052Z,20.42
2018-05-23T06:55:50.155Z,20.58
2018-05-23T06:56:50.257Z,20.76
2018-05-23T06:57:50.361Z,20.59
2018-05-23T06:58:50.463Z,20.59
2018-05-23T06:59:50.568Z,20.83
2018-05-23T07:00:50.659Z,20.80
2018-05-23T07:01:50.763Z,20.61
2018-05-23T07:02:50.867Z,20.76
2018-05-23T07:03:50.968Z,20.76
2018-05-23T07:04:51.070Z,20.79
2018-05-23T07:05:51.239Z,20.80
2018-05-23T07:06:51.276Z,20.77
2018-05-23T07:07:51.379Z,20.61
2018-05-23T07:08:51.483Z,20.71
2018-05-23T07:09:51.580Z,20.89
2018-05-23T07:10:51.690Z,20.76
2018-05-23T07:11:51.798Z,20.47
2018-05-23T07:12:51.887Z,20.62
2018-05-23T07:13:51.990Z,20.80
2018-05-23T07:14:52.098Z,20.91
2018-05-23T07:15:52.197Z,21.06
2018-05-23T07:16:52.302Z,21.02
2018-05-23T07:17:52.482Z,20.81
2018-05-23T07:18:52.496Z,20.84
2018-05-23T07:19:52.599Z,21.06
2018-05-23T07:20:52.702Z,21.11
2018-05-23T07:21:52.804Z,21.16
2018-05-23T07:22:52.909Z,21.29
2018-05-23T07:23:53.010Z,21.30
2018-05-23T07:24:53.109Z,21.32
2018-05-23T07:25:53.234Z,21.42
2018-05-23T07:26:53.309Z,21.23
2018-05-23T07:27:53.414Z,21.23
2018-05-23T07:28:53.519Z,21.04
2018-05-23T07:29:53.619Z,20.61
2018-05-23T07:30:53.724Z,20.69
2018-05-23T07:31:53.824Z,20.80
2018-05-23T07:32:53.926Z,20.80
2018-05-23T07:33:54.031Z,20.98
2018-05-23T07:34:54.130Z,21.19
2018-05-23T07:35:54.232Z,21.32
2018-05-23T07:36:54.335Z,21.48
2018-05-23T07:37:54.440Z,21.53
2018-05-23T07:38:54.536Z,21.48
2018-05-23T07:39:54.651Z,21.75
2018-05-23T07:40:54.736Z,21.90
2018-05-23T07:41:54.837Z,21.42
2018-05-23T07:42:54.948Z,21.53
2018-05-23T07:43:55.043Z,21.71
2018-05-23T07:44:55.147Z,21.72
2018-05-23T07:45:55.327Z,21.91
2018-05-23T07:46:55.347Z,21.98
2018-05-23T07:47:55.451Z,21.74
2018-05-23T07:48:55.555Z,21.90
2018-05-23T07:49:55.657Z,21.97
2018-05-23T07:50:55.762Z,22.27
2018-05-23T07:51:55.865Z,22.19
2018-05-23T07:52:55.962Z,21.99
2018-05-23T07:53:56.065Z,22.31
2018-05-23T07:54:56.170Z,22.34
2018-05-23T07:55:56.279Z,22.34
2018-05-23T07:56:56.375Z,22.17
2018-05-23T07:57:56.566Z,22.35
2018-05-23T07:58:56.613Z,22.44
2018-05-23T07:59:56.669Z,22.53
2018-05-23T08:00:56.769Z,22.46
2018-05-23T08:01:56.872Z,22.31
2018-05-23T08:02:56.976Z,22.53
2018-05-23T08:03:57.084Z,22.54
2018-05-23T08:04:57.186Z,22.54
2018-05-23T08:05:57.291Z,22.53
2018-05-23T08:06:57.385Z,22.62
2018-05-23T08:07:57.489Z,22.64
2018-05-23T08:08:57.592Z,22.59
2018-05-23T08:09:57.696Z,22.52
2018-05-23T08:10:57.803Z,22.56
2018-05-23T08:11:57.907Z,22.67
2018-05-23T08:12:58.012Z,22.80
2018-05-23T08:13:58.108Z,22.83
2018-05-23T08:14:58.226Z,22.78
2018-05-23T08:15:58.330Z,22.74
2018-05-23T08:16:58.435Z,22.97
2018-05-23T08:17:58.601Z,23.01
2018-05-23T08:18:58.649Z,23.20
2018-05-23T08:19:58.755Z,23.32
2018-05-23T08:20:58.873Z,23.38
2018-05-23T08:21:58.976Z,22.64
2018-05-23T08:22:59.078Z,22.77
2018-05-23T08:23:59.183Z,22.86
2018-05-23T08:24:59.289Z,22.74
2018-05-23T08:25:59.379Z,22.53
2018-05-23T08:26:59.487Z,22.44
2018-05-23T08:27:59.593Z,22.25
2018-05-23T08:28:59.703Z,22.29
2018-05-23T08:29:59.804Z,22.29
2018-05-23T08:30:59.912Z,22.34
2018-05-23T08:32:00.015Z,22.50
2018-05-23T08:33:00.122Z,22.60
2018-05-23T08:34:00.223Z,22.75
2018-05-23T08:35:00.327Z,22.89
2018-05-23T08:36:00.425Z,23.14
2018-05-23T08:37:00.529Z,23.11
2018-05-23T08:38:00.629Z,22.87
2018-05-23T08:39:00.734Z,23.08
2018-05-23T08:40:00.838Z,23.04
2018-05-23T08:41:00.941Z,22.72
2018-05-23T08:42:01.047Z,22.54
2018-05-23T08:43:01.143Z,22.56
2018-05-23T08:44:01.253Z,22.59
2018-05-23T08:45:01.358Z,22.78
2018-05-23T08:46:01.488Z,22.92
2018-05-23T08:47:01.568Z,23.11
2018-05-23T08:48:01.671Z,23.31
2018-05-23T08:49:01.781Z,23.55
2018-05-23T08:50:01.885Z,23.79
2018-05-23T08:51:01.987Z,23.90
2018-05-23T08:52:02.095Z,24.16
2018-05-23T08:53:02.198Z,23.76
2018-05-23T08:54:02.304Z,23.45
2018-05-23T08:55:02.409Z,23.61
2018-05-23T08:56:02.513Z,23.77
2018-05-23T08:57:02.627Z,23.89
2018-05-23T08:58:02.758Z,23.87
2018-05-23T08:59:02.875Z,24.08
2018-05-23T09:00:02.978Z,24.05
2018-05-23T09:01:03.073Z,24.10
2018-05-23T09:02:03.196Z,23.89
2018-05-23T09:03:03.292Z,24.05
2018-05-23T09:04:03.402Z,24.35
2018-05-23T09:05:03.548Z,24.39
2018-05-23T09:06:03.616Z,24.57
2018-05-23T09:07:03.720Z,24.75
2018-05-23T09:08:03.836Z,24.77
2018-05-23T09:09:03.956Z,24.88
2018-05-23T09:10:04.067Z,24.76
2018-05-23T09:11:04.173Z,24.38
2018-05-23T09:12:04.271Z,24.35
2018-05-23T09:13:04.384Z,24.38
2018-05-23T09:14:04.491Z,24.39
2018-05-23T09:15:04.598Z,24.54
2018-05-23T09:16:04.692Z,24.79
2018-05-23T09:17:04.808Z,24.79
2018-05-23T09:18:04.910Z,24.98
2018-05-23T09:19:05.011Z,24.95
2018-05-23T09:20:05.122Z,25.02
2018-05-23T09:21:05.231Z,25.10
2018-05-23T09:22:05.332Z,24.97
2018-05-23T09:23:05.437Z,24.98
2018-05-23T09:24:05.621Z,25.02
2018-05-23T09:25:05.648Z,24.82
2018-05-23T09:26:05.754Z,24.63
2018-05-23T09:27:05.859Z,24.34
2018-05-23T09:28:05.944Z,24.38
2018-05-23T09:29:06.071Z,24.49
2018-05-23T09:30:06.199Z,24.77
2018-05-23T09:31:06.297Z,24.56
2018-05-23T09:32:06.445Z,24.38
2018-05-23T09:33:06.568Z,24.38
2018-05-23T09:34:06.657Z,24.23
2018-05-23T09:35:06.770Z,24.14
2018-05-23T09:36:06.903Z,24.19
2018-05-23T09:37:07.019Z,24.27
2018-05-23T09:38:07.117Z,24.32
2018-05-23T09:39:07.267Z,23.98
2018-05-23T09:40:07.459Z,24.13
2018-05-23T09:41:07.437Z,23.85
2018-05-23T09:42:07.691Z,23.95
2018-05-23T09:43:07.766Z,24.10
2018-05-23T09:44:07.731Z,24.07
2018-05-23T09:45:07.953Z,24.00
2018-05-23T09:46:07.994Z,24.22
2018-05-23T09:47:08.113Z,24.45
2018-05-23T09:48:08.165Z,24.24
2018-05-23T09:49:08.219Z,23.82
2018-05-23T09:50:08.390Z,23.92
2018-05-23T09:51:08.367Z,23.70
2018-05-23T09:52:08.479Z,23.85
2018-05-23T09:53:08.643Z,24.08
2018-05-23T09:54:08.738Z,24.31
2018-05-23T09:55:08.900Z,24.50
2018-05-23T09:56:08.932Z,24.75
2018-05-23T09:57:09.079Z,24.77
2018-05-23T09:58:09.472Z,24.35
2018-05-23T09:59:09.327Z,24.23
2018-05-23T10:00:09.444Z,24.17
2018-05-23T10:01:09.552Z,24.27
2018-05-23T10:02:09.663Z,24.26
2018-05-23T10:03:09.789Z,24.34
2018-05-23T10:04:09.909Z,24.35
2018-05-23T10:05:10.043Z,24.39
2018-05-23T10:06:10.199Z,24.39
2018-05-23T10:07:10.226Z,24.37
2018-05-23T10:08:10.337Z,24.37
2018-05-23T10:09:10.640Z,24.54
2018-05-23T10:10:10.505Z,24.82
2018-05-23T10:11:10.625Z,24.82
2018-05-23T10:12:10.747Z,24.50
2018-05-23T10:13:10.849Z,24.76
2018-05-23T10:14:10.952Z,24.90
2018-05-23T10:15:11.053Z,25.07
2018-05-23T10:16:11.182Z,24.88
2018-05-23T10:17:11.289Z,24.97
2018-05-23T10:18:11.410Z,25.06
2018-05-23T10:19:11.513Z,25.10
2018-05-23T10:20:11.619Z,25.19
2018-05-23T10:21:11.799Z,25.32
2018-05-23T10:22:11.894Z,25.31
2018-05-23T10:23:12.014Z,25.42
2018-05-23T10:24:12.128Z,25.69
2018-05-23T10:25:12.240Z,25.62
2018-05-23T10:26:12.338Z,25.65
2018-05-23T10:27:12.471Z,25.53
2018-05-23T10:28:12.588Z,25.59
2018-05-23T10:29:12.694Z,25.44
2018-05-23T10:30:12.794Z,25.50
2018-05-23T10:31:12.899Z,25.57
2018-05-23T10:32:13.028Z,25.54
2018-05-23T10:33:13.138Z,25.68
2018-05-23T10:34:13.255Z,25.83
2018-05-23T10:35:13.368Z,26.01
2018-05-23T10:36:13.508Z,25.71
2018-05-23T10:37:13.611Z,25.64
2018-05-23T10:38:13.717Z,25.59
2018-05-23T10:39:13.831Z,25.83
2018-05-23T10:40:13.926Z,25.82
2018-05-23T10:41:14.055Z,25.86
2018-05-23T10:42:14.191Z,25.72
2018-05-23T10:43:14.293Z,25.86
2018-05-23T10:44:14.392Z,25.50
2018-05-23T10:45:14.505Z,25.43
2018-05-23T10:46:14.713Z,25.49
2018-05-23T10:47:14.759Z,25.56
2018-05-23T10:48:14.865Z,25.34
2018-05-23T10:49:14.974Z,25.39
2018-05-23T10:50:15.089Z,25.59
2018-05-23T10:51:15.189Z,25.57
2018-05-23T10:52:15.316Z,25.79
2018-05-23T10:53:15.471Z,25.72
2018-05-23T10:54:15.600Z,25.87
2018-05-23T10:55:15.699Z,25.98
2018-05-23T10:56:15.813Z,26.05
2018-05-23T10:57:15.968Z,25.84
2018-05-23T10:58:16.034Z,25.86
2018-05-23T10:59:16.125Z,25.90
2018-05-23T11:00:16.310Z,25.75
2018-05-23T11:01:16.341Z,25.83
2018-05-23T11:02:16.447Z,25.86
2018-05-23T11:03:16.558Z,26.04
2018-05-23T11:04:16.664Z,26.28
2018-05-23T11:05:16.776Z,26.46
2018-05-23T11:06:16.891Z,26.46
2018-05-23T11:07:16.987Z,25.98
2018-05-23T11:08:17.160Z,26.20
2018-05-23T11:09:17.146Z,26.11
2018-05-23T11:10:17.251Z,26.22
2018-05-23T11:11:17.383Z,26.24
2018-05-23T11:12:17.499Z,26.37
2018-05-23T11:13:17.607Z,26.49
2018-05-23T11:14:17.709Z,26.18
2018-05-23T11:15:17.897Z,26.20
2018-05-23T11:16:17.964Z,26.25
2018-05-23T11:17:18.083Z,26.11
2018-05-23T11:18:18.239Z,26.22
2018-05-23T11:19:18.312Z,25.93
2018-05-23T11:20:18.417Z,26.20
2018-05-23T11:21:18.543Z,26.44
2018-05-23T11:22:18.648Z,26.89
2018-05-23T11:23:18.785Z,26.99
2018-05-23T11:24:18.888Z,27.06
2018-05-23T11:25:18.998Z,27.39
2018-05-23T11:26:19.102Z,27.35
2018-05-23T11:27:19.201Z,27.39
2018-05-23T11:28:19.304Z,27.48
2018-05-23T11:29:19.417Z,27.43
2018-05-23T11:30:19.517Z,27.39
2018-05-23T11:31:19.631Z,27.39
2018-05-23T11:32:19.744Z,27.54
2018-05-23T11:33:19.855Z,27.91
2018-05-23T11:34:19.961Z,27.66
2018-05-23T11:35:20.063Z,27.73
2018-05-23T11:36:20.177Z,27.50
2018-05-23T11:37:20.299Z,27.39
2018-05-23T11:38:20.388Z,27.31
2018-05-23T11:39:20.497Z,27.19
2018-05-23T11:40:20.604Z,27.39
2018-05-23T11:41:20.709Z,27.53
2018-05-23T11:42:20.809Z,27.42
2018-05-23T11:43:20.917Z,27.23
2018-05-23T11:44:21.024Z,27.20
2018-05-23T11:45:21.135Z,27.38
2018-05-23T11:46:21.238Z,26.74
2018-05-23T11:47:21.349Z,26.74
2018-05-23T11:48:21.457Z,26.96
2018-05-23T11:49:21.568Z,26.68
2018-05-23T11:50:21.674Z,26.69
2018-05-23T11:51:21.814Z,26.77
2018-05-23T11:52:21.925Z,26.96
2018-05-23T11:53:22.035Z,27.19
2018-05-23T11:54:22.139Z,27.35
2018-05-23T11:55:22.248Z,27.36
2018-05-23T11:56:22.353Z,27.43
2018-05-23T11:57:22.461Z,27.53
2018-05-23T11:58:22.569Z,27.64
2018-05-23T11:59:22.675Z,27.66
2018-05-23T12:00:22.786Z,27.74
2018-05-23T12:01:22.892Z,27.66
2018-05-23T12:02:22.998Z,27.92
2018-05-23T12:03:23.105Z,27.91
2018-05-23T12:04:23.214Z,27.98
2018-05-23T12:05:23.323Z,28.11
2018-05-23T12:06:23.430Z,28.13
2018-05-23T12:07:23.534Z,28.17
2018-05-23T12:08:23.643Z,28.21
2018-05-23T12:09:23.752Z,28.19
2018-05-23T12:10:23.946Z,28.17
2018-05-23T12:11:23.967Z,28.16
2018-05-23T12:12:24.077Z,28.25
2018-05-23T12:13:24.186Z,28.26
2018-05-23T12:14:24.296Z,28.33
2018-05-23T12:15:24.403Z,27.94
2018-05-23T12:16:24.507Z,27.79
2018-05-23T12:17:24.611Z,27.74
2018-05-23T12:18:24.722Z,27.80
2018-05-23T12:19:24.830Z,28.03
2018-05-23T12:20:24.942Z,28.26
2018-05-23T12:21:25.050Z,28.06
2018-05-23T12:22:25.157Z,27.96
2018-05-23T12:23:25.266Z,27.99
2018-05-23T12:24:25.376Z,28.01
2018-05-23T12:25:25.497Z,28.09
2018-05-23T12:26:25.601Z,28.38
2018-05-23T12:27:25.712Z,28.26
2018-05-23T12:28:25.818Z,28.19
2018-05-23T12:29:25.969Z,28.29
2018-05-23T12:30:26.038Z,28.29
2018-05-23T12:31:26.146Z,28.23
2018-05-23T12:32:26.257Z,28.36
2018-05-23T12:33:26.367Z,28.51
2018-05-23T12:34:26.475Z,28.65
2018-05-23T12:35:26.583Z,28.51
2018-05-23T12:36:26.693Z,28.04
2018-05-23T12:37:26.802Z,28.19
2018-05-23T12:38:26.911Z,28.07
2018-05-23T12:39:27.014Z,28.01
2018-05-23T12:40:27.121Z,27.94
2018-05-23T12:41:27.229Z,27.94
2018-05-23T12:42:27.340Z,28.06
2018-05-23T12:43:27.448Z,28.06
2018-05-23T12:44:27.561Z,28.10
2018-05-23T12:45:27.668Z,27.67
2018-05-23T12:46:27.780Z,27.64
2018-05-23T12:47:27.895Z,27.86
2018-05-23T12:48:28.002Z,27.33
2018-05-23T12:49:28.112Z,27.04
2018-05-23T12:50:28.220Z,26.81
2018-05-23T12:51:28.329Z,27.02
2018-05-23T12:52:28.436Z,27.14
2018-05-23T12:53:28.545Z,27.21